Time;durP1;ratioP1;P1;durP2;ratioP2;P2;SDS_P1;SDS_P2;PMS_P1;PMS_P2;Temp;Humidity;BMP_temperature;BMP_pressure;BME280_temperature;BME280_humidity;BME280_pressure;Samples;Min_cycle;Max_cycle;Signal;HPM_P1;HPM_P2
2023/10/07 00:03:29;;;;;;;11.07;6.35;;;;;;;13.57;86.40;100823.84;10280780;28;20575;-78
2023/10/07 00:08:34;;;;;;;11.63;5.93;;;;;;;13.50;86.58;100807.34;10262352;28;20047;-78
2023/10/07 00:13:42;;;;;;;13.88;6.28;;;;;;;13.67;86.28;100822.91;10252042;28;20058;-77
2023/10/07 00:18:46;;;;;;;10.35;6.70;;;;;;;13.66;86.31;100812.28;10267081;28;20062;-77
2023/10/07 00:23:52;;;;;;;13.38;6.43;;;;;;;13.69;86.17;100806.59;10255052;28;20043;-78
2023/10/07 00:29:00;;;;;;;8.70;4.85;;;;;;;13.47;87.19;100805.75;10267506;28;20049;-77
2023/10/07 00:34:15;;;;;;;10.27;6.10;;;;;;;13.43;88.05;100808.84;10289247;28;20059;-78
2023/10/07 00:39:33;;;;;;;12.60;7.30;;;;;;;13.93;85.57;100799.03;10256922;28;20079;-79
2023/10/07 00:44:39;;;;;;;9.82;5.95;;;;;;;13.59;86.13;100814.63;10264040;28;20125;-79
2023/10/07 00:49:50;;;;;;;17.30;7.28;;;;;;;13.96;85.07;100815.94;10247983;28;20607;-78
2023/10/07 00:54:59;;;;;;;12.95;6.45;;;;;;;13.80;85.25;100819.16;10248088;28;20059;-77
2023/10/07 01:00:29;;;;;;;12.48;6.22;;;;;;;13.57;86.18;100815.75;10245107;28;20462;-79
2023/10/07 01:05:33;;;;;;;13.75;6.50;;;;;;;13.59;86.42;100805.69;10260335;28;20054;-78
2023/10/07 01:10:39;;;;;;;15.85;7.15;;;;;;;13.92;84.72;100805.41;10262870;28;20058;-78
2023/10/07 01:15:48;;;;;;;14.77;6.78;;;;;;;14.01;84.40;100787.53;10257751;28;20106;-78
2023/10/07 01:21:05;;;;;;;12.90;5.88;;;;;;;14.07;83.61;100781.59;10255033;28;20413;-78
2023/10/07 01:26:15;;;;;;;14.93;6.95;;;;;;;13.83;84.96;100787.31;10264676;28;20054;-79
2023/10/07 01:31:19;;;;;;;13.30;5.70;;;;;;;13.94;84.26;100783.69;10244703;28;20046;-79
2023/10/07 01:36:24;;;;;;;15.63;6.90;;;;;;;13.78;84.34;100767.13;10255476;28;20134;-78
2023/10/07 01:41:28;;;;;;;10.77;6.00;;;;;;;13.79;84.42;100804.78;10255264;28;20047;-79
2023/10/07 01:46:32;;;;;;;15.10;8.15;;;;;;;13.91;84.46;100787.50;10248867;28;20063;-79
2023/10/07 01:51:36;;;;;;;17.60;8.07;;;;;;;14.10;83.41;100772.34;10263364;28;20072;-78
2023/10/07 01:56:40;;;;;;;17.63;7.25;;;;;;;13.92;84.68;100769.44;10250631;28;20055;-78
2023/10/07 02:01:51;;;;;;;18.73;7.63;;;;;;;13.65;85.69;100770.03;10254384;28;20110;-78
2023/10/07 02:06:55;;;;;;;12.10;6.07;;;;;;;13.47;87.31;100777.94;10245335;28;20292;-79
2023/10/07 02:12:08;;;;;;;14.50;8.98;;;;;;;13.49;87.14;100767.81;10262747;28;21265;-78
2023/10/07 02:17:12;;;;;;;14.93;8.40;;;;;;;13.58;86.95;100777.00;10247726;28;20058;-78
2023/10/07 02:22:28;;;;;;;15.38;6.80;;;;;;;13.59;86.33;100773.28;10264683;28;20042;-78
2023/10/07 02:27:41;;;;;;;15.05;7.63;;;;;;;13.74;85.50;100776.47;10259063;28;20054;-78
2023/10/07 02:32:44;;;;;;;17.48;8.38;;;;;;;13.60;86.84;100767.78;10286206;28;20047;-78
2023/10/07 02:37:49;;;;;;;12.38;6.75;;;;;;;13.82;85.31;100771.25;10249459;28;20057;-78
2023/10/07 02:42:54;;;;;;;23.27;8.80;;;;;;;13.61;87.14;100769.47;10259659;28;20058;-77
2023/10/07 02:48:00;;;;;;;15.38;8.95;;;;;;;13.49;87.65;100787.59;10251258;28;20109;-79
2023/10/07 02:53:11;;;;;;;20.70;9.95;;;;;;;13.61;87.16;100785.66;10244418;28;20179;-79
2023/10/07 02:58:27;;;;;;;19.50;8.60;;;;;;;13.43;88.22;100796.22;10244241;28;20466;-78
2023/10/07 03:03:38;;;;;;;18.92;10.85;;;;;;;13.67;87.37;100779.72;10248034;28;20082;-78
2023/10/07 03:08:47;;;;;;;16.10;9.50;;;;;;;13.57;87.78;100777.97;10245055;28;20518;-78
2023/10/07 03:13:57;;;;;;;14.90;8.27;;;;;;;13.22;90.23;100798.91;10248257;28;20049;-78
2023/10/07 03:19:07;;;;;;;19.13;11.00;;;;;;;13.46;89.14;100778.91;10241592;28;20087;-78
2023/10/07 03:24:12;;;;;;;17.02;9.27;;;;;;;13.53;88.99;100774.69;10238747;28;20414;-78
2023/10/07 03:29:30;;;;;;;18.52;10.77;;;;;;;13.12;92.42;100770.16;10235767;28;20051;-78
2023/10/07 03:34:35;;;;;;;22.38;11.80;;;;;;;13.07;94.51;100788.56;10247380;28;20780;-78
2023/10/07 03:39:55;;;;;;;20.10;12.27;;;;;;;12.89;97.56;100772.09;10248640;28;20047;-78
2023/10/07 03:45:00;;;;;;;23.95;15.25;;;;;;;12.94;97.69;100786.88;10244873;28;20043;-79
2023/10/07 03:50:20;;;;;;;22.30;14.60;;;;;;;13.14;96.99;100771.72;10236844;28;20063;-79
2023/10/07 03:55:23;;;;;;;21.70;15.02;;;;;;;13.04;97.48;100795.06;10239939;28;20055;-77
2023/10/07 04:00:33;;;;;;;23.42;16.80;;;;;;;13.22;95.51;100798.91;10246320;28;20219;-79
2023/10/07 04:05:42;;;;;;;21.40;13.70;;;;;;;13.18;95.42;100796.59;10246857;28;20047;-78
2023/10/07 04:10:45;;;;;;;20.85;14.77;;;;;;;13.28;95.16;100795.66;10247050;28;20047;-78
2023/10/07 04:15:52;;;;;;;26.98;14.57;;;;;;;13.23;95.11;100791.66;10248122;28;20051;-79
2023/10/07 04:20:58;;;;;;;25.30;16.00;;;;;;;13.48;92.69;100777.78;10238950;28;20066;-79
2023/10/07 04:26:09;;;;;;;25.27;16.40;;;;;;;13.28;95.21;100782.19;10250030;28;20039;-78
2023/10/07 04:31:14;;;;;;;22.70;15.10;;;;;;;13.10;95.58;100758.63;10245974;28;20102;-79
2023/10/07 04:36:31;;;;;;;19.10;12.68;;;;;;;13.38;94.43;100759.81;10247498;28;21353;-79
2023/10/07 04:41:43;;;;;;;27.98;17.88;;;;;;;13.40;94.80;100774.03;10254735;28;20103;-78
2023/10/07 04:46:56;;;;;;;25.38;17.33;;;;;;;13.57;93.08;100769.84;10253601;28;20050;-78
2023/10/07 04:51:59;;;;;;;24.50;16.23;;;;;;;13.43;93.97;100777.31;10251255;28;20082;-78
2023/10/07 04:57:09;;;;;;;29.95;17.73;;;;;;;13.25;95.07;100777.06;10270820;28;20063;-78
2023/10/07 05:02:15;;;;;;;27.83;18.25;;;;;;;13.41;95.10;100760.44;10251630;28;20124;-79
2023/10/07 05:07:24;;;;;;;31.67;18.60;;;;;;;13.56;93.92;100765.47;10261774;28;20047;-79
2023/10/07 05:12:26;;;;;;;28.95;16.80;;;;;;;13.54;94.11;100772.84;10263188;28;20051;-78
2023/10/07 05:17:36;;;;;;;35.08;22.58;;;;;;;13.70;93.99;100771.34;10249115;28;21117;-78
2023/10/07 05:22:39;;;;;;;38.22;21.70;;;;;;;13.44;95.45;100770.09;10247640;28;20047;-78
2023/10/07 05:27:41;;;;;;;39.67;22.88;;;;;;;13.46;94.97;100768.94;10244267;28;20050;-79
2023/10/07 05:32:47;;;;;;;32.15;21.67;;;;;;;13.89;93.11;100767.03;10264209;28;20051;-79
2023/10/07 05:37:50;;;;;;;40.25;23.40;;;;;;;13.32;96.99;100777.38;10245160;28;20047;-78
2023/10/07 05:42:53;;;;;;;45.50;24.70;;;;;;;13.49;97.04;100774.09;10246971;28;20051;-79
2023/10/07 05:47:57;;;;;;;36.67;26.60;;;;;;;13.30;97.10;100773.94;10250883;28;21101;-78
2023/10/07 05:53:02;;;;;;;42.53;26.60;;;;;;;13.50;96.33;100769.56;10248302;28;20054;-79
2023/10/07 05:58:05;;;;;;;30.95;17.35;;;;;;;13.18;98.92;100775.84;10247139;28;20106;-79
2023/10/07 06:03:12;;;;;;;36.50;21.67;;;;;;;13.58;97.34;100777.00;10253240;28;20055;-78
2023/10/07 06:08:15;;;;;;;48.50;22.33;;;;;;;13.40;98.13;100777.59;10240431;28;20042;-79
2023/10/07 06:13:18;;;;;;;52.08;31.55;;;;;;;13.45;98.85;100766.41;10252262;28;20536;-78
2023/10/07 06:18:23;;;;;;;62.33;33.47;;;;;;;13.61;98.03;100772.16;10249417;28;20046;-79
2023/10/07 06:23:26;;;;;;;48.92;29.50;;;;;;;13.18;100.00;100786.66;10252512;28;20066;-79
2023/10/07 06:28:35;;;;;;;49.95;29.45;;;;;;;13.43;100.00;100765.66;10252626;28;20050;-79
2023/10/07 06:33:40;;;;;;;52.67;27.85;;;;;;;13.29;100.00;100769.53;10247488;28;20055;-79
2023/10/07 06:38:52;;;;;;;56.55;34.47;;;;;;;13.70;99.84;100773.19;10255544;28;20062;-79
2023/10/07 06:43:59;;;;;;;59.28;35.42;;;;;;;13.68;99.63;100777.88;10265891;28;20050;-78
2023/10/07 06:49:04;;;;;;;46.33;28.67;;;;;;;13.78;99.46;100781.47;10267253;28;20150;-79
2023/10/07 06:54:07;;;;;;;53.63;33.58;;;;;;;13.76;98.82;100788.00;10263157;28;20057;-78
2023/10/07 06:59:13;;;;;;;59.55;34.15;;;;;;;13.38;100.00;100771.47;10279822;28;20124;-78
2023/10/07 07:04:19;;;;;;;62.22;34.67;;;;;;;13.83;99.95;100770.28;10250266;28;20422;-77
2023/10/07 07:14:50;;;;;;;64.13;36.63;;;;;;;13.81;100.00;100762.28;10264857;28;20060;-79
2023/10/07 07:20:29;;;;;;;70.00;35.78;;;;;;;13.75;100.00;100773.66;10254714;28;20061;-78
2023/10/07 07:25:39;;;;;;;63.33;32.92;;;;;;;14.34;96.82;100783.66;10254075;28;20047;-79
2023/10/07 07:30:45;;;;;;;53.35;30.38;;;;;;;13.90;100.00;100782.22;10245008;28;20637;-78
2023/10/07 07:35:51;;;;;;;66.03;38.40;;;;;;;14.30;98.66;100781.38;10252482;28;20055;-77
2023/10/07 07:41:05;;;;;;;59.03;29.30;;;;;;;14.28;98.09;100776.09;10249709;28;20039;-78
2023/10/07 07:46:26;;;;;;;65.75;36.22;;;;;;;14.25;98.30;100752.03;10248315;28;20050;-78
2023/10/07 07:51:37;;;;;;;55.15;26.70;;;;;;;14.21;99.60;100774.09;10254290;28;20129;-78
2023/10/07 07:56:42;;;;;;;65.30;35.47;;;;;;;14.46;97.54;100765.50;10252743;28;20047;-78
2023/10/07 08:01:50;;;;;;;53.47;32.47;;;;;;;14.40;99.27;100784.09;10279113;28;20121;-78
2023/10/07 08:06:55;;;;;;;56.72;35.42;;;;;;;14.78;96.41;100800.38;10267151;28;20073;-77
2023/10/07 08:11:59;;;;;;;63.30;34.20;;;;;;;13.88;100.00;100795.03;10265442;28;20054;-78
2023/10/07 08:17:03;;;;;;;67.97;35.15;;;;;;;14.49;99.75;100791.38;10273213;28;20135;-78
2023/10/07 08:22:18;;;;;;;51.92;29.10;;;;;;;14.13;100.00;100796.41;10271984;28;20058;-77
2023/10/07 08:32:42;;;;;;;65.03;36.55;;;;;;;14.61;99.11;100801.06;10266539;28;20050;-78
2023/10/07 08:37:47;;;;;;;55.67;32.88;;;;;;;14.61;97.49;100790.25;10273707;28;20050;-78
2023/10/07 08:42:50;;;;;;;59.13;34.80;;;;;;;14.88;96.52;100780.59;10277913;28;20047;-78
2023/10/07 08:47:54;;;;;;;46.38;25.95;;;;;;;14.71;97.68;100783.00;10278489;28;20058;-78
2023/10/07 08:53:06;;;;;;;55.42;31.17;;;;;;;14.52;99.00;100778.44;10254516;28;21300;-78
2023/10/07 08:58:11;;;;;;;41.95;25.17;;;;;;;14.24;100.00;100800.84;10266222;28;20661;-78
2023/10/07 09:03:15;;;;;;;51.90;27.67;;;;;;;14.74;97.78;100757.53;10272063;28;20541;-77
2023/10/07 09:08:22;;;;;;;48.00;25.48;;;;;;;14.78;97.19;100748.13;10265746;28;20050;-77
2023/10/07 09:13:29;;;;;;;42.20;26.38;;;;;;;14.97;96.24;100745.41;10268093;28;20050;-77
2023/10/07 09:18:37;;;;;;;47.90;28.17;;;;;;;15.01;96.07;100757.66;10267536;28;20139;-79
2023/10/07 09:23:47;;;;;;;51.10;30.67;;;;;;;15.13;94.82;100763.75;10279845;28;20058;-78
2023/10/07 09:28:58;;;;;;;48.58;28.65;;;;;;;14.97;95.79;100742.69;10256462;28;20540;-79
2023/10/07 09:34:09;;;;;;;49.03;30.02;;;;;;;15.65;91.68;100742.56;10260409;28;20055;-78
2023/10/07 09:44:41;;;;;;;37.85;26.35;;;;;;;15.84;90.27;100709.13;10245243;28;20054;-78
2023/10/07 09:49:44;;;;;;;31.80;24.15;;;;;;;15.50;91.58;100726.97;10250489;28;20610;-78
2023/10/07 09:55:21;;;;;;;37.20;25.95;;;;;;;15.66;91.62;100751.53;10248722;28;20066;-78
2023/10/07 10:00:38;;;;;;;30.92;22.38;;;;;;;15.81;89.92;100730.25;10262625;28;20498;-78
2023/10/07 10:06:07;;;;;;;30.48;22.40;;;;;;;16.54;86.42;100733.81;10257591;28;20437;-78
2023/10/07 10:11:30;;;;;;;27.25;20.30;;;;;;;16.76;83.44;100718.91;10258640;28;20042;-78
2023/10/07 10:16:44;;;;;;;33.33;22.08;;;;;;;16.40;85.57;100733.47;10265598;28;20054;-77
2023/10/07 10:21:47;;;;;;;31.08;21.30;;;;;;;16.99;83.76;100711.09;10257146;28;20066;-77
2023/10/07 10:27:04;;;;;;;23.63;15.63;;;;;;;16.39;85.74;100693.81;10265468;28;20046;-78
2023/10/07 10:32:16;;;;;;;22.75;15.23;;;;;;;17.26;82.63;100720.16;10266798;28;20133;-77
2023/10/07 10:37:23;;;;;;;20.42;13.55;;;;;;;18.07;78.09;100729.72;10267399;28;20154;-78
2023/10/07 10:42:27;;;;;;;17.70;12.15;;;;;;;18.37;76.53;100717.38;10268902;28;20055;-77
2023/10/07 10:47:30;;;;;;;14.75;11.75;;;;;;;18.98;74.61;100732.44;10261692;28;20043;-77
2023/10/07 10:52:34;;;;;;;13.35;8.13;;;;;;;19.15;72.06;100707.94;10275227;28;20189;-78
2023/10/07 10:57:41;;;;;;;8.60;7.07;;;;;;;19.58;71.14;100728.44;10267565;28;20600;-78
2023/10/07 11:02:45;;;;;;;12.05;7.57;;;;;;;19.58;70.74;100703.94;10248326;28;20057;-78
2023/10/07 11:07:50;;;;;;;9.40;5.18;;;;;;;19.65;69.62;100714.97;10258483;28;20046;-78
2023/10/07 11:12:56;;;;;;;7.78;4.85;;;;;;;19.39;71.19;100707.00;10252685;28;20050;-78
2023/10/07 11:18:11;;;;;;;10.52;6.10;;;;;;;18.87;73.31;100723.75;10264412;28;20584;-77
2023/10/07 11:23:16;;;;;;;9.40;5.85;;;;;;;19.39;72.94;100709.72;10260576;28;20046;-78
2023/10/07 11:28:22;;;;;;;13.07;5.55;;;;;;;19.62;71.50;100709.88;10272689;28;20104;-77
2023/10/07 11:33:25;;;;;;;7.78;4.25;;;;;;;19.62;70.05;100715.31;10262715;28;20050;-78
2023/10/07 11:38:29;;;;;;;8.70;4.65;;;;;;;19.40;72.10;100711.44;10278475;28;20097;-78
2023/10/07 11:43:43;;;;;;;7.43;3.97;;;;;;;18.74;73.83;100721.53;10261637;28;20057;-76
2023/10/07 11:48:46;;;;;;;8.32;3.50;;;;;;;18.48;74.11;100717.06;10266066;28;20050;-77
2023/10/07 11:53:49;;;;;;;7.93;3.85;;;;;;;18.72;73.16;100726.28;10252441;28;20050;-78
2023/10/07 11:58:54;;;;;;;6.10;2.22;;;;;;;20.34;66.92;100712.44;10260847;28;20042;-78
2023/10/07 12:03:57;;;;;;;5.55;3.42;;;;;;;19.31;71.46;100701.56;10262261;28;20078;-78
2023/10/07 12:09:06;;;;;;;6.32;3.58;;;;;;;18.89;73.65;100697.22;10275253;28;20054;-78
2023/10/07 12:14:13;;;;;;;8.77;3.80;;;;;;;19.13;72.68;100701.78;10253021;28;20574;-78
2023/10/07 12:19:17;;;;;;;5.15;2.63;;;;;;;18.82;73.59;100704.38;10252141;28;20046;-77
2023/10/07 12:24:21;;;;;;;6.70;3.42;;;;;;;19.39;71.58;100709.72;10244527;28;20077;-76
2023/10/07 12:29:27;;;;;;;5.88;3.50;;;;;;;19.20;72.47;100728.16;10250433;28;20185;-77
2023/10/07 12:34:31;;;;;;;6.30;3.33;;;;;;;18.66;74.80;100719.66;10250137;28;20125;-76
2023/10/07 12:39:39;;;;;;;6.35;3.10;;;;;;;18.23;76.59;100712.59;10253326;28;20051;-78
2023/10/07 12:44:43;;;;;;;7.15;2.90;;;;;;;18.80;74.32;100694.50;10250450;28;20054;-78
2023/10/07 12:49:46;;;;;;;3.40;2.35;;;;;;;18.31;76.11;100713.47;10256325;28;20051;-77
2023/10/07 12:54:50;;;;;;;6.32;2.72;;;;;;;18.80;74.84;100705.38;10241997;28;20046;-78
2023/10/07 12:59:55;;;;;;;9.07;3.38;;;;;;;19.47;72.30;100712.41;10241347;28;20102;-78
2023/10/07 13:04:58;;;;;;;8.65;3.08;;;;;;;20.16;69.63;100709.97;10250777;28;20051;-77
2023/10/07 13:10:03;;;;;;;9.73;3.20;;;;;;;19.92;69.20;100700.03;10252547;28;20043;-77
2023/10/07 13:15:14;;;;;;;2.97;1.85;;;;;;;19.36;71.47;100688.28;10247235;28;20058;-78
2023/10/07 13:20:20;;;;;;;2.63;1.85;;;;;;;19.11;71.53;100701.09;10241812;28;20059;-78
2023/10/07 13:25:24;;;;;;;8.07;3.10;;;;;;;18.76;71.76;100703.16;10246371;28;20109;-77
2023/10/07 13:30:30;;;;;;;4.57;3.10;;;;;;;19.36;69.71;100688.28;10236187;28;20054;-76
2023/10/07 13:35:33;;;;;;;7.03;2.92;;;;;;;18.97;71.44;100678.16;10242755;28;20059;-77
2023/10/07 13:40:38;;;;;;;7.10;2.42;;;;;;;18.82;71.86;100675.28;10247432;28;20050;-79
2023/10/07 13:45:42;;;;;;;6.30;2.38;;;;;;;20.52;65.28;100666.59;10254600;28;20050;-78
2023/10/07 13:50:46;;;;;;;6.18;2.75;;;;;;;20.22;66.01;100684.69;10277098;28;20476;-78
2023/10/07 13:55:58;;;;;;;6.55;2.85;;;;;;;20.45;64.49;100664.78;10261979;28;20046;-78
2023/10/07 14:01:05;;;;;;;5.88;3.10;;;;;;;19.73;65.57;100657.69;10239884;28;20103;-78
2023/10/07 14:06:08;;;;;;;4.88;2.80;;;;;;;19.17;67.22;100665.88;10256414;28;20073;-79
2023/10/07 14:11:11;;;;;;;9.18;3.75;;;;;;;18.80;66.94;100658.28;10251321;28;20065;-79
2023/10/07 14:16:17;;;;;;;9.40;3.20;;;;;;;20.13;63.57;100643.00;10249169;28;20051;-78
2023/10/07 14:21:25;;;;;;;7.30;3.40;;;;;;;19.42;65.62;100633.13;10246751;28;20059;-78
2023/10/07 14:26:32;;;;;;;7.82;3.60;;;;;;;19.14;66.99;100641.72;10258943;28;20047;-78
2023/10/07 14:31:37;;;;;;;8.45;3.45;;;;;;;19.04;67.30;100660.13;10242347;28;20047;-78
2023/10/07 14:36:41;;;;;;;7.18;3.15;;;;;;;19.38;65.02;100665.28;10242919;28;20050;-79
2023/10/07 14:41:44;;;;;;;9.10;3.70;;;;;;;19.58;65.03;100682.13;10240117;28;20054;-78
2023/10/07 14:46:48;;;;;;;9.00;3.95;;;;;;;19.13;66.73;100669.97;10265640;28;20141;-77
2023/10/07 14:51:52;;;;;;;9.45;3.90;;;;;;;19.22;67.04;100676.22;10262431;28;20050;-78
2023/10/07 14:56:55;;;;;;;8.70;4.10;;;;;;;18.83;68.21;100654.38;10263567;28;20051;-77
2023/10/07 15:02:00;;;;;;;7.90;4.72;;;;;;;19.02;68.21;100654.84;10258341;28;20057;-77
2023/10/07 15:07:06;;;;;;;8.25;4.28;;;;;;;18.91;68.45;100659.81;10267371;28;20057;-77
2023/10/07 15:12:09;;;;;;;12.15;5.13;;;;;;;18.88;68.83;100668.31;10251595;28;20595;-77
2023/10/07 15:17:17;;;;;;;9.25;4.50;;;;;;;18.78;68.15;100657.59;10260382;28;20057;-77
2023/10/07 15:22:21;;;;;;;9.90;4.90;;;;;;;19.37;66.10;100666.34;10270674;28;20043;-77
2023/10/07 15:27:24;;;;;;;10.20;5.22;;;;;;;19.14;66.95;100651.75;10240005;28;20059;-77
2023/10/07 15:32:29;;;;;;;13.27;4.55;;;;;;;18.88;66.92;100650.09;10252691;28;20530;-77
2023/10/07 15:37:32;;;;;;;9.25;4.18;;;;;;;18.84;66.98;100637.88;10261791;28;20058;-76
2023/10/07 15:42:36;;;;;;;7.68;4.50;;;;;;;19.07;66.76;100646.16;10256806;28;20442;-77
2023/10/07 15:47:40;;;;;;;11.95;4.95;;;;;;;18.67;67.37;100639.72;10259096;28;21307;-77
2023/10/07 15:52:45;;;;;;;13.02;5.30;;;;;;;18.36;68.09;100625.97;10264353;28;20046;-78
2023/10/07 15:57:48;;;;;;;11.80;5.47;;;;;;;18.53;67.67;100654.84;10270469;28;20172;-78
2023/10/07 16:02:52;;;;;;;7.97;3.83;;;;;;;18.14;69.11;100658.22;10285306;28;20046;-78
2023/10/07 16:07:58;;;;;;;7.47;4.38;;;;;;;18.30;68.02;100648.41;10269323;28;20057;-77
2023/10/07 16:13:01;;;;;;;12.57;4.75;;;;;;;18.41;68.19;100685.28;10259071;28;20066;-77
2023/10/07 16:18:06;;;;;;;12.02;4.57;;;;;;;18.05;69.39;100702.72;10274507;28;21213;-78
2023/10/07 16:23:09;;;;;;;12.07;5.80;;;;;;;18.19;69.62;100709.38;10260878;28;20061;-77
2023/10/07 16:28:12;;;;;;;10.90;5.10;;;;;;;17.73;71.37;100700.72;10268936;28;20055;-77
2023/10/07 16:33:16;;;;;;;14.65;4.90;;;;;;;17.87;71.10;100689.19;10274601;28;20058;-78
2023/10/07 16:38:20;;;;;;;12.98;5.43;;;;;;;17.76;72.17;100718.56;10261613;28;21187;-77
2023/10/07 16:43:23;;;;;;;12.65;5.80;;;;;;;17.74;72.50;100718.69;10259965;28;20046;-77
2023/10/07 16:48:29;;;;;;;9.57;5.35;;;;;;;17.86;72.36;100733.72;10263319;28;20053;-77
2023/10/07 16:53:34;;;;;;;14.88;6.32;;;;;;;17.83;72.42;100725.03;10262745;28;20058;-77
2023/10/07 17:05:39;;;;;;;14.85;5.82;;;;;;;17.67;74.62;100723.09;10256302;28;20047;-72
2023/10/07 17:10:43;;;;;;;10.88;5.80;;;;;;;17.75;74.36;100725.84;10222723;28;20052;-72
2023/10/07 17:15:47;;;;;;;11.18;6.32;;;;;;;18.00;73.34;100721.38;10220609;28;20044;-72
2023/10/07 17:20:51;;;;;;;14.63;6.45;;;;;;;17.94;74.03;100730.19;10204983;29;20043;-72
2023/10/07 17:25:54;;;;;;;13.57;6.85;;;;;;;17.93;74.34;100732.03;10203569;29;20095;-72
2023/10/07 17:30:56;;;;;;;14.35;6.47;;;;;;;17.96;74.53;100727.28;10206529;29;20046;-73
2023/10/07 17:36:01;;;;;;;11.75;5.53;;;;;;;17.97;74.63;100735.31;10206785;29;20059;-72
2023/10/07 17:41:04;;;;;;;13.07;6.10;;;;;;;17.87;75.36;100740.84;10208010;29;20399;-73
2023/10/07 17:46:08;;;;;;;12.65;6.43;;;;;;;17.97;75.37;100756.19;10190926;29;20151;-73
2023/10/07 17:51:12;;;;;;;17.10;6.20;;;;;;;17.47;77.96;100734.19;10169580;28;20071;-73
2023/10/07 17:56:15;;;;;;;13.35;5.03;;;;;;;17.48;78.09;100735.06;10173066;29;20126;-73
2023/10/07 18:01:19;;;;;;;13.20;5.95;;;;;;;17.54;78.56;100726.25;10178693;28;20051;-73
2023/10/07 18:06:23;;;;;;;19.25;5.50;;;;;;;17.55;78.34;100722.53;10169881;28;20407;-74
2023/10/07 18:11:26;;;;;;;13.75;6.15;;;;;;;17.34;79.75;100722.91;10155532;29;20115;-75
2023/10/07 18:16:29;;;;;;;18.52;7.40;;;;;;;17.40;80.33;100737.72;10157641;29;20144;-73
2023/10/07 18:21:33;;;;;;;19.08;6.03;;;;;;;17.31;80.77;100725.13;10156453;28;20159;-73
2023/10/07 18:26:35;;;;;;;18.30;7.65;;;;;;;17.33;81.29;100710.34;10151764;29;20195;-73
2023/10/07 18:31:38;;;;;;;15.82;6.07;;;;;;;17.18;82.22;100706.53;10155988;29;20190;-73
2023/10/07 18:36:43;;;;;;;14.20;6.20;;;;;;;17.23;81.98;100688.75;10151645;29;20131;-74
2023/10/07 18:41:46;;;;;;;16.85;7.20;;;;;;;17.23;81.23;100701.47;10156039;29;20047;-73
2023/10/07 18:46:49;;;;;;;14.57;6.60;;;;;;;17.51;79.98;100713.00;10160272;28;20047;-74
2023/10/07 18:51:53;;;;;;;14.18;6.00;;;;;;;17.35;81.07;100711.03;10174548;28;20497;-73
2023/10/07 18:56:56;;;;;;;11.60;5.47;;;;;;;17.30;80.37;100696.25;10179950;28;20245;-73
2023/10/07 19:01:59;;;;;;;15.23;4.85;;;;;;;17.22;80.96;100697.03;10176835;28;20054;-73
2023/10/07 19:07:04;;;;;;;14.80;5.97;;;;;;;17.11;82.08;100710.84;10151790;29;20160;-74
2023/10/07 19:12:07;;;;;;;12.40;4.38;;;;;;;17.04;82.12;100721.50;10151537;29;20055;-74
2023/10/07 19:17:10;;;;;;;12.85;4.80;;;;;;;17.08;81.52;100733.72;10174961;28;20186;-74
2023/10/07 19:22:14;;;;;;;15.45;6.43;;;;;;;17.29;80.55;100735.28;10195160;28;20659;-74
2023/10/07 19:27:18;;;;;;;14.27;7.03;;;;;;;17.34;80.20;100719.34;10183747;28;20048;-74
2023/10/07 19:32:21;;;;;;;13.93;5.75;;;;;;;17.06;80.92;100724.03;10173861;28;20062;-74
2023/10/07 19:37:26;;;;;;;13.45;5.25;;;;;;;16.98;81.62;100711.28;10159968;28;20125;-74
2023/10/07 19:42:29;;;;;;;11.60;5.75;;;;;;;16.77;81.67;100714.34;10153268;28;21146;-74
2023/10/07 19:47:32;;;;;;;10.07;5.35;;;;;;;17.14;80.56;100708.72;10158413;29;20051;-74
2023/10/07 19:52:38;;;;;;;12.43;4.90;;;;;;;16.82;81.54;100701.16;10164573;29;20052;-74
2023/10/07 19:57:41;;;;;;;12.07;6.13;;;;;;;17.19;80.16;100740.78;10169400;29;20060;-74
2023/10/07 20:02:44;;;;;;;12.50;6.30;;;;;;;16.95;80.09;100749.56;10170381;29;20090;-74
2023/10/07 20:07:50;;;;;;;13.20;5.78;;;;;;;17.10;79.08;100772.44;10163894;28;20048;-73
2023/10/07 20:12:53;;;;;;;14.50;4.88;;;;;;;17.06;79.24;100789.16;10158021;28;20055;-74
2023/10/07 20:17:56;;;;;;;13.93;4.93;;;;;;;17.49;76.95;100799.22;10158373;28;20189;-74
2023/10/07 20:23:01;;;;;;;11.88;5.43;;;;;;;17.41;76.81;100800.00;10170760;29;20406;-74
2023/10/07 20:28:04;;;;;;;12.75;5.65;;;;;;;17.02;78.43;100792.19;10169069;29;20081;-73
2023/10/07 20:33:07;;;;;;;15.45;5.55;;;;;;;17.01;78.59;100797.81;10162728;28;20063;-74
2023/10/07 20:38:12;;;;;;;12.18;5.85;;;;;;;17.21;77.34;100803.94;10177240;28;20059;-73
2023/10/07 20:43:16;;;;;;;10.95;5.13;;;;;;;17.06;77.38;100798.19;10164492;29;20051;-74
2023/10/07 20:48:19;;;;;;;12.82;4.63;;;;;;;16.96;77.37;100783.84;10173338;28;20115;-74
2023/10/07 20:53:25;;;;;;;10.65;5.70;;;;;;;16.86;78.19;100778.50;10180662;28;20187;-74
2023/10/07 20:58:29;;;;;;;12.05;5.25;;;;;;;17.20;76.51;100783.22;10163489;28;20078;-74
2023/10/07 21:03:32;;;;;;;13.20;4.80;;;;;;;16.92;77.49;100790.56;10168623;28;20056;-74
2023/10/07 21:08:36;;;;;;;15.35;4.78;;;;;;;16.92;77.27;100805.03;10165210;29;20757;-74
2023/10/07 21:13:40;;;;;;;16.35;6.25;;;;;;;17.02;77.00;100813.91;10173884;29;20055;-73
2023/10/07 21:18:44;;;;;;;11.07;4.82;;;;;;;17.08;76.84;100812.44;10157812;28;20426;-74
2023/10/07 21:23:49;;;;;;;11.15;4.75;;;;;;;16.82;77.59;100793.41;10161236;28;20056;-74
2023/10/07 21:28:54;;;;;;;14.65;5.63;;;;;;;16.78;78.06;100797.41;10176547;28;20055;-74
2023/10/07 21:33:57;;;;;;;16.48;5.50;;;;;;;17.21;76.57;100784.94;10166699;29;20055;-74
2023/10/07 21:39:02;;;;;;;11.32;4.30;;;;;;;16.87;77.80;100826.34;10158982;28;20522;-75
2023/10/07 21:44:05;;;;;;;12.32;5.05;;;;;;;16.78;78.40;100833.56;10165659;28;20074;-74
2023/10/07 21:49:09;;;;;;;14.23;5.05;;;;;;;17.27;76.45;100814.16;10164068;29;20062;-74
2023/10/07 21:54:14;;;;;;;17.55;5.57;;;;;;;17.16;76.60;100803.53;10164363;28;20048;-74
2023/10/07 21:59:19;;;;;;;13.20;5.28;;;;;;;16.95;78.21;100807.41;10162995;28;20054;-74
2023/10/07 22:04:22;;;;;;;13.43;6.18;;;;;;;16.99;78.50;100806.09;10166654;29;20109;-74
2023/10/07 22:09:29;;;;;;;13.23;5.90;;;;;;;16.90;78.36;100814.31;10161292;29;20133;-74
2023/10/07 22:14:32;;;;;;;15.30;5.38;;;;;;;17.10;77.96;100807.72;10164769;29;21441;-74
2023/10/07 22:19:35;;;;;;;15.15;6.00;;;;;;;17.02;78.75;100819.34;10163655;28;20062;-74
2023/10/07 22:24:39;;;;;;;14.90;6.05;;;;;;;17.15;78.34;100827.13;10162487;28;20052;-74
2023/10/07 22:29:42;;;;;;;10.93;5.03;;;;;;;16.63;81.10;100837.78;10154091;28;20913;-74
2023/10/07 22:34:46;;;;;;;13.77;6.38;;;;;;;16.83;80.31;100841.22;10157903;29;20055;-74
2023/10/07 22:39:56;;;;;;;19.08;6.03;;;;;;;16.98;79.63;100838.81;10160940;29;20067;-74
2023/10/07 22:45:00;;;;;;;17.33;7.18;;;;;;;17.10;79.00;100821.28;10177898;28;20051;-74
2023/10/07 22:50:04;;;;;;;20.42;6.30;;;;;;;16.90;80.42;100828.75;10163939;28;20138;-74
2023/10/07 22:55:14;;;;;;;14.48;5.65;;;;;;;16.84;81.25;100840.22;10160091;28;20052;-74
2023/10/07 23:00:19;;;;;;;12.82;5.25;;;;;;;16.92;81.25;100824.03;10162136;28;20508;-74
2023/10/07 23:05:23;;;;;;;16.63;5.90;;;;;;;16.89;81.12;100827.00;10160554;29;20098;-74
2023/10/07 23:10:35;;;;;;;17.98;6.13;;;;;;;16.88;81.53;100833.47;10159682;29;20054;-74
2023/10/07 23:15:38;;;;;;;16.30;5.68;;;;;;;16.67;82.16;100844.59;10156908;28;20566;-75
2023/10/07 23:20:46;;;;;;;12.73;5.38;;;;;;;16.67;82.93;100841.03;10162357;28;20076;-74
2023/10/07 23:25:57;;;;;;;15.07;5.80;;;;;;;16.79;82.22;100846.09;10166795;29;20055;-74
2023/10/07 23:36:23;;;;;;;;;;;;;;;16.88;82.08;100855.16;10167069;29;20049;-74
2023/10/07 23:41:31;;;;;;;15.75;6.32;;;;;;;16.73;82.95;100849.44;10160078;28;19929;-75